Time;durP1;ratioP1;P1;durP2;ratioP2;P2;SDS_P1;SDS_P2;PMS_P1;PMS_P2;Temp;Humidity;BMP_temperature;BMP_pressure;BME280_temperature;BME280_humidity;BME280_pressure;Samples;Min_cycle;Max_cycle;Signal;HPM_P1;HPM_P2
2022/09/28 00:00:58;;;;;;;;;;;;;;;9.50;100.00;97341.61;104930;1273;61293;-70
2022/09/28 00:03:29;;;;;;;;;;;;;;;9.52;100.00;97342.08;104907;1274;61175;-70
2022/09/28 00:05:59;;;;;;;;;;;;;;;9.55;100.00;97338.98;104934;1273;61350;-69
2022/09/28 00:08:26;;;;;;;;;;;;;;;9.59;100.00;97341.13;104923;1273;69264;-70
2022/09/28 00:10:55;;;;;;;;;;;;;;;9.61;100.00;97341.81;104916;1273;61397;-70
2022/09/28 00:13:22;;;;;;;;;;;;;;;9.63;100.00;97340.36;104969;1273;61408;-69
2022/09/28 00:15:58;;;;;;;;;;;;;;;9.66;100.00;97338.73;104923;1273;61316;-70
2022/09/28 00:18:25;;;;;;;;;;;;;;;9.67;100.00;97336.08;104953;1273;75748;-69
2022/09/28 00:21:00;;;;;;;;;;;;;;;9.70;100.00;97336.30;104985;1273;70393;-69
2022/09/28 00:23:27;;;;;;;;;;;;;;;9.72;100.00;97333.83;104850;1273;73128;-69
2022/09/28 00:25:53;;;;;;;;;;;;;;;9.72;100.00;97330.89;104699;1273;61377;-69
2022/09/28 00:28:19;;;;;;;;;;;;;;;9.73;100.00;97332.62;104956;1273;61252;-69
2022/09/28 00:30:46;;;;;;;;;;;;;;;9.75;100.00;97330.87;104947;1273;61358;-70
2022/09/28 00:33:13;;;;;;;;;;;;;;;9.75;100.00;97327.95;104889;1273;61582;-69
2022/09/28 00:35:40;;;;;;;;;;;;;;;9.76;100.00;97328.39;104899;1273;61450;-69
2022/09/28 00:38:08;;;;;;;;;;;;;;;9.77;100.00;97329.02;104881;1274;61368;-69
2022/09/28 00:40:35;;;;;;;;;;;;;;;9.78;100.00;97330.20;104924;1273;61325;-69
2022/09/28 00:43:15;;;;;;;;;;;;;;;9.78;100.00;97328.04;104901;1273;75974;-69
2022/09/28 00:45:42;;;;;;;;;;;;;;;9.78;100.00;97328.09;104955;1273;70158;-69
2022/09/28 00:48:12;;;;;;;;;;;;;;;9.76;100.00;97327.49;104926;1272;74477;-69
2022/09/28 00:50:42;;;;;;;;;;;;;;;9.75;100.00;97330.51;104942;1273;61401;-68
2022/09/28 00:53:12;;;;;;;;;;;;;;;9.73;100.00;97332.79;104970;1273;61362;-69
2022/09/28 00:55:45;;;;;;;;;;;;;;;9.71;100.00;97331.89;104927;1273;75315;-69
2022/09/28 00:58:16;;;;;;;;;;;;;;;9.68;100.00;97325.77;104938;1273;70072;-69
2022/09/28 01:00:43;;;;;;;;;;;;;;;9.66;100.00;97321.52;105059;1273;72209;-71
2022/09/28 01:03:10;;;;;;;;;;;;;;;9.64;100.00;97324.71;104929;1273;61333;-69
2022/09/28 01:05:40;;;;;;;;;;;;;;;9.61;100.00;97324.26;104953;1273;61786;-69
2022/09/28 01:08:08;;;;;;;;;;;;;;;9.59;100.00;97327.27;104936;1273;75219;-69
2022/09/28 01:10:34;;;;;;;;;;;;;;;9.58;100.00;97328.97;104910;1273;69259;-69
2022/09/28 01:13:01;;;;;;;;;;;;;;;9.57;100.00;97331.56;104914;1272;61387;-69
2022/09/28 01:15:28;;;;;;;;;;;;;;;9.55;100.00;97332.23;104955;1273;61399;-70
2022/09/28 01:17:58;;;;;;;;;;;;;;;9.53;100.00;97340.58;104992;1274;61544;-70
2022/09/28 01:20:31;;;;;;;;;;;;;;;9.52;100.00;97340.90;104940;1273;76367;-70
2022/09/28 01:23:20;;;;;;;;;;;;;;;9.50;100.00;97340.16;104918;1273;70476;-71
2022/09/28 01:25:53;;;;;;;;;;;;;;;9.49;100.00;97342.40;104863;1273;73564;-70
2022/09/28 01:28:23;;;;;;;;;;;;;;;9.47;100.00;97343.65;104956;1273;63455;-71
2022/09/28 01:30:56;;;;;;;;;;;;;;;9.43;100.00;97344.48;104918;1273;61855;-70
2022/09/28 01:33:25;;;;;;;;;;;;;;;9.42;100.00;97341.23;104985;1273;76549;-70
2022/09/28 01:35:54;;;;;;;;;;;;;;;9.39;100.00;97343.27;104947;1273;70432;-70
2022/09/28 01:38:23;;;;;;;;;;;;;;;9.37;100.00;97343.10;104944;1273;71567;-70
2022/09/28 01:40:51;;;;;;;;;;;;;;;9.34;100.00;97338.92;104910;1273;61368;-70
2022/09/28 01:43:23;;;;;;;;;;;;;;;9.30;100.00;97340.84;104930;1273;62104;-70
2022/09/28 01:45:53;;;;;;;;;;;;;;;9.24;100.00;97340.15;104929;1273;76225;-70
2022/09/28 01:48:40;;;;;;;;;;;;;;;9.17;100.00;97345.89;104883;1274;70621;-70
2022/09/28 01:51:11;;;;;;;;;;;;;;;9.08;100.00;97347.04;104656;1278;72980;-70
2022/09/28 01:53:40;;;;;;;;;;;;;;;8.98;100.00;97344.19;104673;1278;61516;-70
2022/09/28 01:56:11;;;;;;;;;;;;;;;8.88;100.00;97349.64;104733;1278;61227;-70
2022/09/28 01:58:42;;;;;;;;;;;;;;;8.78;100.00;97345.41;104692;1278;76148;-69
2022/09/28 02:01:14;;;;;;;;;;;;;;;8.67;100.00;97351.61;104650;1278;69912;-69
2022/09/28 02:03:46;;;;;;;;;;;;;;;8.57;100.00;97350.55;104722;1278;73303;-69
2022/09/28 02:06:24;;;;;;;;;;;;;;;8.48;100.00;97350.09;104679;1278;61466;-69
2022/09/28 02:09:03;;;;;;;;;;;;;;;8.39;100.00;97352.21;104690;1277;61433;-69
2022/09/28 02:11:29;;;;;;;;;;;;;;;8.30;100.00;97349.09;104669;1278;75434;-69
2022/09/28 02:13:56;;;;;;;;;;;;;;;8.23;100.00;97346.16;104698;1278;69182;-70
2022/09/28 02:16:31;;;;;;;;;;;;;;;8.15;100.00;97347.13;104686;1278;61343;-70
2022/09/28 02:18:57;;;;;;;;;;;;;;;8.09;100.00;97348.56;104653;1278;61398;-70
2022/09/28 02:21:27;;;;;;;;;;;;;;;8.03;100.00;97343.77;104743;1278;61396;-70
2022/09/28 02:24:05;;;;;;;;;;;;;;;7.97;100.00;97342.77;104670;1278;75417;-68
2022/09/28 02:26:34;;;;;;;;;;;;;;;7.92;100.00;97344.11;104733;1277;68836;-70
2022/09/28 02:29:01;;;;;;;;;;;;;;;7.87;100.00;97346.95;104823;1273;73874;-70
2022/09/28 02:31:27;;;;;;;;;;;;;;;7.83;100.00;97347.14;104921;1273;61193;-70
2022/09/28 02:33:55;;;;;;;;;;;;;;;7.77;100.00;97348.86;104933;1273;61267;-71
2022/09/28 02:36:24;;;;;;;;;;;;;;;7.72;100.00;97349.14;104974;1273;74826;-70
2022/09/28 02:38:51;;;;;;;;;;;;;;;7.65;100.00;97350.37;104947;1273;69150;-71
2022/09/28 02:41:30;;;;;;;;;;;;;;;7.59;100.00;97347.34;104839;1273;74472;-70
2022/09/28 02:44:06;;;;;;;;;;;;;;;7.53;100.00;97349.78;104980;1273;61268;-71
2022/09/28 02:46:52;;;;;;;;;;;;;;;7.46;100.00;97350.13;105024;1273;61786;-70
2022/09/28 02:49:39;;;;;;;;;;;;;;;7.39;100.00;97358.98;104973;1273;74786;-70
2022/09/28 02:52:14;;;;;;;;;;;;;;;7.33;100.00;97359.99;105008;1272;69543;-69
2022/09/28 02:54:41;;;;;;;;;;;;;;;7.28;100.00;97357.65;105006;1273;73082;-70
2022/09/28 02:57:22;;;;;;;;;;;;;;;7.21;100.00;97353.92;104997;1272;61408;-71
2022/09/28 03:00:10;;;;;;;;;;;;;;;7.13;100.00;97360.93;104978;1272;61458;-70
2022/09/28 03:02:49;;;;;;;;;;;;;;;7.05;100.00;97364.41;104973;1273;75409;-68
2022/09/28 03:05:38;;;;;;;;;;;;;;;6.97;100.00;97361.09;105138;1273;68989;-69
2022/09/28 03:08:09;;;;;;;;;;;;;;;6.91;100.00;97364.25;104997;1274;73441;-70
2022/09/28 03:10:40;;;;;;;;;;;;;;;6.85;100.00;97368.05;104944;1273;61171;-70
2022/09/28 03:13:08;;;;;;;;;;;;;;;6.80;100.00;97366.85;104956;1274;61380;-70
2022/09/28 03:15:34;;;;;;;;;;;;;;;6.77;100.00;97365.33;104947;1274;76454;-70
2022/09/28 03:18:01;;;;;;;;;;;;;;;6.74;100.00;97363.75;104940;1273;69394;-69
2022/09/28 03:20:29;;;;;;;;;;;;;;;6.71;100.00;97360.63;104930;1273;74716;-68
2022/09/28 03:22:55;;;;;;;;;;;;;;;6.67;100.00;97357.94;104964;1274;61570;-70
2022/09/28 03:25:22;;;;;;;;;;;;;;;6.63;100.00;97359.69;105036;1273;61497;-70
2022/09/28 03:27:49;;;;;;;;;;;;;;;6.60;100.00;97363.44;105032;1273;75354;-69
2022/09/28 03:30:15;;;;;;;;;;;;;;;6.59;100.00;97367.78;104933;1274;61244;-70
2022/09/28 03:32:41;;;;;;;;;;;;;;;6.59;100.00;97371.30;104872;1273;61248;-71
2022/09/28 03:35:08;;;;;;;;;;;;;;;6.59;100.00;97370.42;104939;1273;61264;-70
2022/09/28 03:37:35;;;;;;;;;;;;;;;6.59;100.00;97371.14;105227;1274;61266;-69
2022/09/28 03:40:02;;;;;;;;;;;;;;;6.59;100.00;97370.89;105093;1274;76376;-70
2022/09/28 03:42:28;;;;;;;;;;;;;;;6.59;100.00;97375.49;104979;1274;69185;-70
2022/09/28 03:44:55;;;;;;;;;;;;;;;6.58;100.00;97378.42;104940;1273;61238;-71
2022/09/28 03:47:23;;;;;;;;;;;;;;;6.57;100.00;97379.41;104917;1273;61424;-70
2022/09/28 03:49:49;;;;;;;;;;;;;;;6.55;100.00;97385.68;104870;1274;61313;-70
2022/09/28 03:52:15;;;;;;;;;;;;;;;6.54;100.00;97388.06;104968;1273;61254;-70
2022/09/28 03:54:42;;;;;;;;;;;;;;;6.51;100.00;97385.80;104934;1274;61257;-71
2022/09/28 03:57:08;;;;;;;;;;;;;;;6.48;100.00;97389.26;104931;1274;61383;-70
2022/09/28 03:59:36;;;;;;;;;;;;;;;6.43;100.00;97389.08;104921;1273;61399;-70
2022/09/28 04:02:03;;;;;;;;;;;;;;;6.40;100.00;97387.40;104924;1273;61666;-70
2022/09/28 04:04:30;;;;;;;;;;;;;;;6.37;100.00;97383.92;104709;1274;75332;-70
2022/09/28 04:06:56;;;;;;;;;;;;;;;6.33;100.00;97393.57;104910;1274;61352;-69
2022/09/28 04:09:22;;;;;;;;;;;;;;;6.29;100.00;97390.67;104899;1274;61330;-69
2022/09/28 04:11:49;;;;;;;;;;;;;;;6.25;100.00;97393.83;104901;1274;61348;-69
2022/09/28 04:14:15;;;;;;;;;;;;;;;6.21;100.00;97387.98;104897;1273;61542;-69
2022/09/28 04:16:42;;;;;;;;;;;;;;;6.17;100.00;97387.36;104928;1274;61369;-70
2022/09/28 04:19:08;;;;;;;;;;;;;;;6.14;100.00;97382.79;104919;1273;62771;-68
2022/09/28 04:21:36;;;;;;;;;;;;;;;6.15;100.00;97380.23;104930;1273;61304;-69
2022/09/28 04:24:02;;;;;;;;;;;;;;;6.19;100.00;97377.86;104887;1273;61324;-69
2022/09/28 04:26:29;;;;;;;;;;;;;;;6.24;100.00;97379.23;105005;1273;61375;-69
2022/09/28 04:31:43;;;;;;;;;;;;;;;6.34;100.00;97369.85;104926;1274;70021;-69
2022/09/28 04:34:10;;;;;;;;;;;;;;;6.40;100.00;97370.09;104863;1274;74447;-70
2022/09/28 04:36:37;;;;;;;;;;;;;;;6.47;100.00;97366.40;104931;1274;61629;-69
2022/09/28 04:39:04;;;;;;;;;;;;;;;6.54;100.00;97365.52;104911;1274;61237;-69
2022/09/28 04:41:30;;;;;;;;;;;;;;;6.60;100.00;97365.75;104940;1273;75395;-70
2022/09/28 04:43:57;;;;;;;;;;;;;;;6.67;100.00;97367.66;104899;1274;61353;-70
2022/09/28 04:46:23;;;;;;;;;;;;;;;6.73;100.00;97369.68;104903;1274;61348;-70
2022/09/28 04:48:49;;;;;;;;;;;;;;;6.80;100.00;97366.84;104911;1274;61263;-69
2022/09/28 04:51:16;;;;;;;;;;;;;;;6.87;100.00;97364.71;104880;1274;61356;-70
2022/09/28 04:53:42;;;;;;;;;;;;;;;6.92;100.00;97362.73;104924;1273;61381;-69
2022/09/28 04:56:13;;;;;;;;;;;;;;;6.95;100.00;97364.06;104927;1273;61294;-69
2022/09/28 04:58:40;;;;;;;;;;;;;;;6.99;100.00;97365.38;104883;1274;74383;-70
2022/09/28 05:01:12;;;;;;;;;;;;;;;7.01;100.00;97363.59;104908;1274;61380;-70
2022/09/28 05:03:38;;;;;;;;;;;;;;;7.08;100.00;97360.23;104994;1273;61162;-71
2022/09/28 05:06:05;;;;;;;;;;;;;;;7.19;100.00;97360.64;104950;1273;61268;-70
2022/09/28 05:08:34;;;;;;;;;;;;;;;7.16;100.00;97360.13;104955;1274;69988;-69
2022/09/28 05:11:01;;;;;;;;;;;;;;;7.18;100.00;97361.02;104749;1274;72992;-70
2022/09/28 05:13:29;;;;;;;;;;;;;;;7.19;100.00;97357.23;104916;1274;61292;-70
2022/09/28 05:15:56;;;;;;;;;;;;;;;7.23;100.00;97361.19;104958;1274;61273;-70
2022/09/28 05:18:23;;;;;;;;;;;;;;;7.45;100.00;97356.73;104917;1272;75329;-69
2022/09/28 05:20:52;;;;;;;;;;;;;;;7.84;100.00;97360.66;104929;1274;69635;-69
2022/09/28 05:23:19;;;;;;;;;;;;;;;8.00;100.00;97357.80;104900;1274;73694;-70
2022/09/28 05:25:45;;;;;;;;;;;;;;;8.09;100.00;97360.08;104894;1273;61350;-70
2022/09/28 05:28:12;;;;;;;;;;;;;;;8.24;100.00;97364.77;105093;1273;61175;-70
2022/09/28 05:30:38;;;;;;;;;;;;;;;8.29;100.00;97360.27;104745;1277;61396;-70
2022/09/28 05:33:04;;;;;;;;;;;;;;;8.26;100.00;97365.73;104936;1273;61292;-70
2022/09/28 05:35:31;;;;;;;;;;;;;;;8.22;100.00;97370.13;104920;1273;61295;-70
2022/09/28 05:38:01;;;;;;;;;;;;;;;8.40;100.00;97362.36;104857;1273;61366;-70
2022/09/28 05:40:28;;;;;;;;;;;;;;;8.49;100.00;97361.83;104946;1273;61279;-70
2022/09/28 05:42:57;;;;;;;;;;;;;;;8.49;100.00;97369.95;104937;1273;61130;-70
2022/09/28 05:45:23;;;;;;;;;;;;;;;8.53;100.00;97373.91;104863;1274;69412;-70
2022/09/28 05:47:50;;;;;;;;;;;;;;;8.54;100.00;97379.78;104970;1272;61276;-70
2022/09/28 05:50:16;;;;;;;;;;;;;;;8.59;100.00;97381.20;104939;1273;61330;-70
2022/09/28 05:52:43;;;;;;;;;;;;;;;8.61;100.00;97381.03;104957;1274;61375;-71
2022/09/28 05:55:10;;;;;;;;;;;;;;;8.63;100.00;97379.61;104947;1273;61302;-70
2022/09/28 05:57:36;;;;;;;;;;;;;;;8.65;100.00;97375.17;104931;1273;70283;-71
2022/09/28 06:00:04;;;;;;;;;;;;;;;8.71;100.00;97374.65;104940;1273;61393;-71
2022/09/28 06:02:31;;;;;;;;;;;;;;;8.76;100.00;97375.48;105031;1273;61342;-70
2022/09/28 06:04:57;;;;;;;;;;;;;;;8.81;100.00;97378.59;104958;1273;61361;-70
2022/09/28 06:07:24;;;;;;;;;;;;;;;8.86;100.00;97374.14;104954;1273;75640;-69
2022/09/28 06:09:50;;;;;;;;;;;;;;;8.90;100.00;97376.21;104986;1273;69551;-70
2022/09/28 06:12:17;;;;;;;;;;;;;;;8.94;100.00;97372.50;104947;1273;61369;-70
2022/09/28 06:14:43;;;;;;;;;;;;;;;9.01;100.00;97368.19;104929;1273;61493;-71
2022/09/28 06:17:10;;;;;;;;;;;;;;;9.09;100.00;97364.52;104937;1273;61264;-69
2022/09/28 06:19:37;;;;;;;;;;;;;;;9.18;100.00;97366.05;104945;1273;61308;-70
2022/09/28 06:22:04;;;;;;;;;;;;;;;9.25;100.00;97364.02;104961;1273;70281;-70
2022/09/28 06:24:31;;;;;;;;;;;;;;;9.29;100.00;97369.46;104972;1273;73225;-70
2022/09/28 06:26:57;;;;;;;;;;;;;;;9.32;100.00;97367.10;104931;1273;62797;-69
2022/09/28 06:29:24;;;;;;;;;;;;;;;9.34;100.00;97366.73;104940;1273;61316;-70
2022/09/28 06:31:50;;;;;;;;;;;;;;;9.38;100.00;97365.48;104928;1273;75681;-69
2022/09/28 06:34:17;;;;;;;;;;;;;;;9.43;100.00;97366.30;104812;1273;162387;-70
2022/09/28 06:36:44;;;;;;;;;;;;;;;9.50;100.00;97369.98;104961;1273;74434;-70
2022/09/28 06:39:10;;;;;;;;;;;;;;;9.54;100.00;97370.46;104949;1273;61367;-70
2022/09/28 06:41:37;;;;;;;;;;;;;;;9.59;100.00;97370.33;104963;1273;61423;-71
2022/09/28 06:44:03;;;;;;;;;;;;;;;9.65;100.00;97371.21;104938;1273;61293;-71
2022/09/28 06:46:30;;;;;;;;;;;;;;;9.72;100.00;97367.62;104936;1273;61362;-70
2022/09/28 06:48:56;;;;;;;;;;;;;;;9.78;100.00;97362.44;104903;1273;61438;-71
2022/09/28 06:51:23;;;;;;;;;;;;;;;9.84;100.00;97363.72;104934;1273;61405;-69
2022/09/28 06:53:52;;;;;;;;;;;;;;;9.92;100.00;97364.59;104996;1273;61377;-70
2022/09/28 06:56:19;;;;;;;;;;;;;;;10.00;100.00;97364.06;104966;1273;75588;-70
2022/09/28 06:58:46;;;;;;;;;;;;;;;10.06;100.00;97364.71;104958;1273;69239;-71
2022/09/28 07:01:13;;;;;;;;;;;;;;;10.14;100.00;97367.36;104955;1272;74238;-71
2022/09/28 07:03:39;;;;;;;;;;;;;;;10.23;100.00;97368.67;104969;1273;61366;-70
2022/09/28 07:06:09;;;;;;;;;;;;;;;10.28;100.00;97369.86;104959;1273;61386;-71
2022/09/28 07:08:35;;;;;;;;;;;;;;;10.33;100.00;97367.09;105020;1273;75904;-71
2022/09/28 07:11:04;;;;;;;;;;;;;;;10.41;100.00;97369.27;104968;1273;61378;-69
2022/09/28 07:13:31;;;;;;;;;;;;;;;10.46;100.00;97365.19;104965;1272;73355;-70
2022/09/28 07:15:58;;;;;;;;;;;;;;;10.51;100.00;97369.89;104955;1273;61297;-71
2022/09/28 07:18:25;;;;;;;;;;;;;;;10.56;100.00;97370.33;104992;1273;61236;-70
2022/09/28 07:20:55;;;;;;;;;;;;;;;10.61;100.00;97371.05;104937;1273;76319;-70
2022/09/28 07:23:23;;;;;;;;;;;;;;;10.68;100.00;97369.91;105044;1273;70381;-71
2022/09/28 07:25:49;;;;;;;;;;;;;;;10.74;100.00;97371.11;104928;1273;73976;-71
2022/09/28 07:28:16;;;;;;;;;;;;;;;10.82;100.00;97372.33;104942;1272;61299;-70
2022/09/28 07:30:43;;;;;;;;;;;;;;;10.88;100.00;97374.39;104992;1273;61816;-70
2022/09/28 07:33:11;;;;;;;;;;;;;;;10.94;100.00;97375.44;104970;1273;76443;-71
2022/09/28 07:35:38;;;;;;;;;;;;;;;11.02;100.00;97364.58;104965;1274;70428;-71
2022/09/28 07:38:05;;;;;;;;;;;;;;;11.08;100.00;97366.15;104949;1273;73407;-71
2022/09/28 07:43:21;;;;;;;;;;;;;;;11.22;100.00;97367.82;104949;1273;61362;-70
2022/09/28 07:45:49;;;;;;;;;;;;;;;11.28;100.00;97365.95;104943;1273;75470;-69
2022/09/28 07:48:16;;;;;;;;;;;;;;;11.35;100.00;97364.97;105115;1272;70690;-70
2022/09/28 07:50:46;;;;;;;;;;;;;;;11.40;100.00;97364.45;104926;1273;73426;-70
2022/09/28 07:53:13;;;;;;;;;;;;;;;11.50;100.00;97361.62;104900;1273;61408;-70
2022/09/28 07:55:39;;;;;;;;;;;;;;;11.63;100.00;97361.52;104990;1273;61362;-70
2022/09/28 07:58:06;;;;;;;;;;;;;;;11.79;100.00;97358.55;104943;1274;61325;-70
2022/09/28 08:00:32;;;;;;;;;;;;;;;11.95;100.00;97355.05;104963;1272;61522;-70
2022/09/28 08:02:59;;;;;;;;;;;;;;;12.07;100.00;97353.02;104940;1273;73732;-71
2022/09/28 08:05:30;;;;;;;;;;;;;;;12.22;100.00;97351.85;105055;1273;61346;-71
2022/09/28 08:07:58;;;;;;;;;;;;;;;12.33;100.00;97352.40;104937;1273;61304;-71
2022/09/28 08:10:25;;;;;;;;;;;;;;;12.53;100.00;97352.32;105087;1273;75089;-70
2022/09/28 08:12:55;;;;;;;;;;;;;;;12.70;100.00;97352.02;104968;1273;69427;-71
2022/09/28 08:15:22;;;;;;;;;;;;;;;12.80;100.00;97350.61;104961;1273;73373;-71
2022/09/28 08:17:48;;;;;;;;;;;;;;;12.86;100.00;97349.13;104960;1273;61325;-71
2022/09/28 08:23:04;;;;;;;;;;;;;;;12.83;100.00;97345.17;104922;1273;75500;-70
2022/09/28 08:25:31;;;;;;;;;;;;;;;12.81;100.00;97343.23;104939;1273;70367;-71
2022/09/28 08:27:57;;;;;;;;;;;;;;;12.73;100.00;97340.81;104942;1273;61401;-70
2022/09/28 08:30:24;;;;;;;;;;;;;;;12.74;100.00;97340.68;104919;1273;61406;-70
2022/09/28 08:32:51;;;;;;;;;;;;;;;12.82;100.00;97337.61;104942;1273;61362;-70
2022/09/28 08:35:17;;;;;;;;;;;;;;;12.88;100.00;97343.58;104933;1272;75141;-70
2022/09/28 08:37:49;;;;;;;;;;;;;;;12.96;100.00;97342.75;104923;1273;61308;-72
2022/09/28 08:40:18;;;;;;;;;;;;;;;13.03;100.00;97344.52;105010;1272;74954;-72
2022/09/28 08:42:44;;;;;;;;;;;;;;;13.09;100.00;97344.23;104954;1272;61154;-71
2022/09/28 08:45:14;;;;;;;;;;;;;;;13.15;100.00;97345.73;104980;1273;61290;-70
2022/09/28 08:50:28;;;;;;;;;;;;;;;13.27;100.00;97342.40;105003;1273;70990;-70
2022/09/28 08:52:58;;;;;;;;;;;;;;;13.26;100.00;97342.86;104624;1275;74692;-70
2022/09/28 08:55:27;;;;;;;;;;;;;;;13.24;100.00;97350.93;104886;1273;61556;-71
2022/09/28 08:57:56;;;;;;;;;;;;;;;13.17;100.00;97354.80;104940;1273;61424;-71
2022/09/28 09:00:37;;;;;;;;;;;;;;;13.21;100.00;97360.08;104894;1272;76415;-71
2022/09/28 09:03:10;;;;;;;;;;;;;;;13.36;100.00;97360.31;105021;1273;69940;-70
2022/09/28 09:05:59;;;;;;;;;;;;;;;13.28;100.00;97359.46;104902;1273;74464;-72
2022/09/28 09:08:26;;;;;;;;;;;;;;;13.17;100.00;97358.73;104940;1272;61286;-72
2022/09/28 09:11:05;;;;;;;;;;;;;;;13.05;100.00;97358.88;104979;1272;61301;-71
2022/09/28 09:13:44;;;;;;;;;;;;;;;13.08;100.00;97358.46;104997;1273;75391;-71
2022/09/28 09:16:25;;;;;;;;;;;;;;;13.16;100.00;97361.35;105045;1273;69199;-72
2022/09/28 09:18:54;;;;;;;;;;;;;;;13.23;100.00;97362.77;104949;1273;73454;-72
2022/09/28 09:21:36;;;;;;;;;;;;;;;13.35;100.00;97362.02;104931;1273;61232;-70
2022/09/28 09:24:10;;;;;;;;;;;;;;;13.47;100.00;97357.44;104928;1273;61160;-70
2022/09/28 09:26:38;;;;;;;;;;;;;;;13.59;100.00;97352.21;104996;1273;74675;-71
2022/09/28 09:29:26;;;;;;;;;;;;;;;13.68;100.00;97347.55;105045;1273;69586;-71
2022/09/28 09:32:05;;;;;;;;;;;;;;;13.69;100.00;97339.09;105054;1273;72614;-71
2022/09/28 09:34:44;;;;;;;;;;;;;;;13.85;100.00;97342.71;104908;1272;61337;-70
2022/09/28 09:37:10;;;;;;;;;;;;;;;14.05;100.00;97336.48;104942;1273;61364;-71
2022/09/28 09:40:01;;;;;;;;;;;;;;;14.27;100.00;97329.27;105017;1273;61308;-70
2022/09/28 09:42:39;;;;;;;;;;;;;;;14.53;100.00;97332.52;104921;1272;69397;-70
2022/09/28 09:45:26;;;;;;;;;;;;;;;14.62;100.00;97330.60;104936;1273;73412;-70
2022/09/28 09:47:55;;;;;;;;;;;;;;;14.63;100.00;97329.80;104656;1275;61395;-71
2022/09/28 09:50:28;;;;;;;;;;;;;;;14.73;100.00;97327.67;104946;1273;61321;-71
2022/09/28 09:53:13;;;;;;;;;;;;;;;14.76;100.00;97323.23;105027;1272;76114;-70
2022/09/28 09:55:44;;;;;;;;;;;;;;;14.74;100.00;97324.11;104959;1272;70360;-70
2022/09/28 09:58:18;;;;;;;;;;;;;;;14.76;100.00;97329.14;104986;1272;74381;-71
2022/09/28 10:00:46;;;;;;;;;;;;;;;14.85;100.00;97328.80;104938;1272;61372;-69
2022/09/28 10:03:18;;;;;;;;;;;;;;;14.89;100.00;97324.23;104979;1273;61852;-70
2022/09/28 10:05:48;;;;;;;;;;;;;;;14.94;100.00;97319.73;104938;1272;76417;-70
2022/09/28 10:08:17;;;;;;;;;;;;;;;15.01;100.00;97314.84;104931;1272;69119;-70
2022/09/28 10:10:58;;;;;;;;;;;;;;;15.12;100.00;97315.09;104909;1273;74807;-71
2022/09/28 10:13:25;;;;;;;;;;;;;;;15.20;100.00;97315.55;104921;1272;61423;-71
2022/09/28 10:15:51;;;;;;;;;;;;;;;15.23;100.00;97311.45;104938;1272;61267;-70
2022/09/28 10:18:19;;;;;;;;;;;;;;;15.29;100.00;97308.28;104902;1273;76370;-71
2022/09/28 10:20:47;;;;;;;;;;;;;;;15.33;100.00;97306.98;104922;1273;69149;-70
2022/09/28 10:23:23;;;;;;;;;;;;;;;15.42;100.00;97304.91;104997;1272;72032;-71
2022/09/28 10:25:54;;;;;;;;;;;;;;;15.50;100.00;97304.26;104904;1272;61508;-70
2022/09/28 10:28:24;;;;;;;;;;;;;;;15.59;100.00;97297.52;104919;1273;61293;-71
2022/09/28 10:30:51;;;;;;;;;;;;;;;15.66;100.00;97294.61;104937;1272;76455;-70
2022/09/28 10:33:44;;;;;;;;;;;;;;;15.66;100.00;97294.31;104958;1272;68831;-71
2022/09/28 10:36:10;;;;;;;;;;;;;;;15.66;100.00;97287.70;104641;1277;74127;-70
2022/09/28 10:38:37;;;;;;;;;;;;;;;15.70;100.00;97290.05;104604;1278;61257;-70
2022/09/28 10:41:10;;;;;;;;;;;;;;;15.78;100.00;97288.64;104660;1277;61452;-71
2022/09/28 10:43:38;;;;;;;;;;;;;;;15.80;100.00;97286.57;104777;1277;74476;-69
2022/09/28 10:46:08;;;;;;;;;;;;;;;15.88;100.00;97284.46;104676;1277;69394;-70
2022/09/28 10:48:53;;;;;;;;;;;;;;;15.98;100.00;97285.88;104625;1277;74367;-70
2022/09/28 10:51:38;;;;;;;;;;;;;;;15.97;100.00;97278.09;104635;1277;61560;-71
2022/09/28 10:54:04;;;;;;;;;;;;;;;16.06;100.00;97270.01;104599;1277;61191;-70
2022/09/28 10:56:35;;;;;;;;;;;;;;;16.16;100.00;97262.48;104602;1277;61330;-71
2022/09/28 10:59:21;;;;;;;;;;;;;;;16.33;100.00;97255.25;104594;1277;70458;-70
2022/09/28 11:01:52;;;;;;;;;;;;;;;16.55;100.00;97246.08;104612;1277;73461;-70
2022/09/28 11:04:21;;;;;;;;;;;;;;;16.68;100.00;97241.98;104587;1277;61389;-71
2022/09/28 11:06:48;;;;;;;;;;;;;;;16.79;100.00;97237.85;104637;1277;61293;-70
2022/09/28 11:09:31;;;;;;;;;;;;;;;16.92;100.00;97239.86;104594;1277;76119;-71
2022/09/28 11:11:59;;;;;;;;;;;;;;;16.87;100.00;97242.79;104594;1278;69428;-70
2022/09/28 11:14:34;;;;;;;;;;;;;;;16.64;100.00;97243.13;104945;1273;72249;-70
2022/09/28 11:17:19;;;;;;;;;;;;;;;16.37;100.00;97244.11;105038;1273;61289;-71
2022/09/28 11:19:46;;;;;;;;;;;;;;;16.15;100.00;97235.77;105036;1273;61870;-71
2022/09/28 11:22:43;;;;;;;;;;;;;;;16.05;100.00;97235.17;104951;1273;73576;-71
2022/09/28 11:25:16;;;;;;;;;;;;;;;16.05;100.00;97237.36;104699;1277;70935;-70
2022/09/28 11:27:51;;;;;;;;;;;;;;;16.20;100.00;97233.34;104663;1277;73516;-71
2022/09/28 11:30:40;;;;;;;;;;;;;;;16.48;100.00;97228.40;104709;1277;61560;-70
2022/09/28 11:33:18;;;;;;;;;;;;;;;16.65;100.00;97228.86;104673;1277;61183;-70
2022/09/28 11:36:03;;;;;;;;;;;;;;;16.89;100.00;97220.09;104730;1276;74397;-70
2022/09/28 11:38:52;;;;;;;;;;;;;;;17.05;100.00;97214.38;104627;1277;68413;-70
2022/09/28 11:41:37;;;;;;;;;;;;;;;17.17;100.00;97213.36;104716;1277;74504;-70
2022/09/28 11:44:19;;;;;;;;;;;;;;;17.15;100.00;97211.23;104655;1277;61424;-71
2022/09/28 11:46:55;;;;;;;;;;;;;;;17.21;100.00;97210.64;104678;1277;61726;-71
2022/09/28 11:49:36;;;;;;;;;;;;;;;17.29;100.00;97209.80;104670;1277;76445;-70
2022/09/28 11:52:08;;;;;;;;;;;;;;;17.37;100.00;97201.47;104663;1277;70395;-71
2022/09/28 11:54:50;;;;;;;;;;;;;;;17.48;100.00;97199.57;104689;1277;74376;-70
2022/09/28 11:57:24;;;;;;;;;;;;;;;17.61;100.00;97192.20;104753;1275;61534;-71
2022/09/28 11:59:58;;;;;;;;;;;;;;;17.63;100.00;97195.24;104766;1277;61211;-71
2022/09/28 12:02:29;;;;;;;;;;;;;;;17.69;100.00;97194.77;104942;1273;76032;-71
2022/09/28 12:04:58;;;;;;;;;;;;;;;17.74;100.00;97194.87;104952;1273;69397;-71
2022/09/28 12:07:28;;;;;;;;;;;;;;;17.78;100.00;97195.29;104952;1273;74207;-71
2022/09/28 12:09:57;;;;;;;;;;;;;;;17.75;100.00;97196.16;104716;1273;61356;-71
2022/09/28 12:12:46;;;;;;;;;;;;;;;17.82;100.00;97186.96;104932;1274;61170;-71
2022/09/28 12:15:19;;;;;;;;;;;;;;;17.91;100.00;97177.39;104750;1277;76527;-71
2022/09/28 12:17:49;;;;;;;;;;;;;;;18.06;100.00;97174.98;104713;1277;69143;-71
2022/09/28 12:20:22;;;;;;;;;;;;;;;18.26;100.00;97177.38;104715;1277;73488;-69
2022/09/28 12:22:54;;;;;;;;;;;;;;;18.43;100.00;97178.88;104735;1277;61314;-70
2022/09/28 12:25:22;;;;;;;;;;;;;;;18.53;100.00;97177.61;104688;1277;61600;-71
2022/09/28 12:27:51;;;;;;;;;;;;;;;18.59;100.00;97179.52;104706;1276;75154;-69
2022/09/28 12:30:19;;;;;;;;;;;;;;;18.66;100.00;97174.13;104738;1277;68407;-71
2022/09/28 12:32:50;;;;;;;;;;;;;;;18.79;100.00;97165.30;104714;1277;74534;-70
2022/09/28 12:35:22;;;;;;;;;;;;;;;18.80;100.00;97162.70;104774;1277;61387;-71
2022/09/28 12:37:49;;;;;;;;;;;;;;;18.81;100.00;97160.83;104802;1277;61208;-70
2022/09/28 12:40:15;;;;;;;;;;;;;;;18.84;100.00;97160.45;104772;1277;61327;-71
2022/09/28 12:43:00;;;;;;;;;;;;;;;18.82;100.00;97162.51;104791;1277;61338;-71
2022/09/28 12:45:42;;;;;;;;;;;;;;;18.83;100.00;97161.42;104817;1277;73391;-71
2022/09/28 12:48:37;;;;;;;;;;;;;;;18.85;100.00;97161.92;104804;1277;61189;-70
2022/09/28 12:51:21;;;;;;;;;;;;;;;18.73;100.00;97167.27;104236;1282;61920;-70
2022/09/28 12:53:48;;;;;;;;;;;;;;;18.68;100.00;97163.10;104715;1278;76340;-71
2022/09/28 12:56:14;;;;;;;;;;;;;;;18.72;100.00;97159.50;104578;1277;61385;-70
2022/09/28 12:58:58;;;;;;;;;;;;;;;18.70;100.00;97162.90;104701;1277;73258;-72
2022/09/28 13:01:31;;;;;;;;;;;;;;;18.60;100.00;97161.48;104564;1277;61256;-71